Ana Sayfa
METAR-TAF:

METAR-TAF

Havaalanları :

Maradi, Nijer

Enlem: 13-28N, Boylam: 007-05E, yükseklik: 372 m

Güncel hava durumu gözlemi

Rapor saat 13:00 UTC de 1 saat ve 16 dakika önce yapıldı.
Rüzgar batıdan 6 kt
Sıcaklık 33°C
Nem 46%
Basınç 1012 hPa
Görüş mesafesi 10 km veya daha fazla
1500 m altında bulut yok ve kümülonimbus yok

METAR: DRRM 251300Z 26006KT CAVOK 33/20 Q1012

Saat: 15:16 (14:16 UTC)


TAF: eksik

4.000'den fazla havaalanı için hava durumu gözlemleri ve tahminleri (METAR ve TAF raporları).

Kullanılabilir istasyonlar harita üzerinde sarı ve kırmızı noktalarla gösterilir.

İstasyonun adını görmek için fareyi noktanın üzerinde gezdirin.

Sonrasında hava gözlem ve tahminlerini görmek için tıklayın.

Haritayı değiştirmek için: yaklaştırmak için siyah artı işaretli yeşil düğmeye ve uzaklaştırmak için de eksi işaretli düğmeye hızla tıklayın; bitişik haritalar için yeşil okları kullanın.


METAR-TAF: